createdAt,value
2022-08-10T00:00:30.943Z,16.76
2022-08-10T00:03:20.334Z,16.73
2022-08-10T00:06:07.445Z,16.70
2022-08-10T00:08:54.518Z,16.72
2022-08-10T00:11:41.543Z,16.58
2022-08-10T00:14:28.557Z,16.64
2022-08-10T00:17:15.615Z,16.63
2022-08-10T00:20:08.554Z,16.79
2022-08-10T00:22:57.697Z,16.78
2022-08-10T00:25:45.102Z,16.96
2022-08-10T00:28:32.286Z,16.99
2022-08-10T00:31:19.646Z,17.01
2022-08-10T00:34:06.658Z,16.97
2022-08-10T00:36:53.745Z,16.80
2022-08-10T00:39:41.372Z,16.67
2022-08-10T00:42:28.555Z,16.61
2022-08-10T00:45:15.574Z,16.55
2022-08-10T00:48:03.031Z,16.46
2022-08-10T00:50:50.378Z,16.45
2022-08-10T00:53:37.464Z,16.44
2022-08-10T00:57:12.691Z,16.35
2022-08-10T00:59:33.009Z,16.31
2022-08-10T01:02:20.062Z,16.16
2022-08-10T01:05:12.401Z,16.19
2022-08-10T01:08:02.251Z,16.08
2022-08-10T01:12:34.203Z,15.95
2022-08-10T01:14:45.187Z,15.92
2022-08-10T01:17:50.665Z,15.85
2022-08-10T01:20:41.691Z,15.74
2022-08-10T01:24:13.472Z,15.73
2022-08-10T01:27:27.418Z,15.78
2022-08-10T01:30:15.402Z,15.72
2022-08-10T01:33:19.196Z,15.73
2022-08-10T01:36:32.037Z,15.68
2022-08-10T01:39:25.268Z,15.68
2022-08-10T01:42:16.909Z,15.64
2022-08-10T01:45:07.263Z,15.58
2022-08-10T01:48:16.989Z,15.57
2022-08-10T01:51:25.273Z,15.48
2022-08-10T01:54:16.071Z,15.43
2022-08-10T01:57:04.516Z,15.37
2022-08-10T01:59:58.788Z,15.45
2022-08-10T02:02:52.769Z,15.45
2022-08-10T02:05:43.531Z,15.46
2022-08-10T02:08:31.983Z,15.48
2022-08-10T02:11:21.185Z,15.51
2022-08-10T02:14:10.042Z,15.48
2022-08-10T02:16:58.095Z,15.43
2022-08-10T02:19:47.190Z,15.37
2022-08-10T02:22:38.844Z,15.34
2022-08-10T02:25:41.738Z,15.24
2022-08-10T02:28:33.746Z,15.17
2022-08-10T02:31:23.454Z,15.11
2022-08-10T02:34:12.773Z,14.95
2022-08-10T02:37:03.948Z,14.91
2022-08-10T02:39:58.231Z,14.92
2022-08-10T02:45:23.959Z,14.86
2022-08-10T02:46:12.138Z,14.82
2022-08-10T02:49:05.089Z,14.79
2022-08-10T02:52:07.570Z,14.77
2022-08-10T02:55:06.119Z,14.80
2022-08-10T02:58:17.627Z,14.72
2022-08-10T03:01:10.722Z,14.66
2022-08-10T03:04:02.011Z,14.59
2022-08-10T03:06:56.392Z,14.55
2022-08-10T03:09:45.287Z,14.53
2022-08-10T03:12:38.661Z,14.54
2022-08-10T03:15:28.659Z,14.52
2022-08-10T03:18:16.887Z,14.48
2022-08-10T03:21:10.018Z,14.46
2022-08-10T03:24:02.610Z,14.40
2022-08-10T03:27:10.710Z,14.40
2022-08-10T03:30:28.563Z,14.33
2022-08-10T03:33:07.873Z,14.31
2022-08-10T03:36:40.463Z,14.26
2022-08-10T03:39:02.357Z,14.24
2022-08-10T03:41:55.946Z,14.25
2022-08-10T03:44:48.582Z,14.19
2022-08-10T03:47:42.061Z,14.17
2022-08-10T03:50:51.502Z,14.18
2022-08-10T03:54:05.524Z,14.15
2022-08-10T03:56:46.205Z,14.16
2022-08-10T03:59:33.861Z,14.15
2022-08-10T04:02:52.721Z,14.13
2022-08-10T04:05:38.255Z,14.13
2022-08-10T04:08:26.312Z,14.10
2022-08-10T04:11:13.590Z,14.03
2022-08-10T04:14:00.628Z,14.05
2022-08-10T04:16:47.628Z,14.05
2022-08-10T04:19:43.208Z,14.08
2022-08-10T04:22:30.668Z,14.09
2022-08-10T04:25:18.454Z,14.12
2022-08-10T04:28:09.597Z,14.20
2022-08-10T04:30:57.820Z,14.21
2022-08-10T04:33:49.011Z,14.21
2022-08-10T04:36:37.240Z,14.19
2022-08-10T04:39:24.390Z,14.20
2022-08-10T04:42:11.754Z,14.21
2022-08-10T04:44:59.549Z,14.26
2022-08-10T04:48:00.354Z,14.30
2022-08-10T04:50:50.845Z,14.38
2022-08-10T04:54:03.155Z,14.44
2022-08-10T04:56:46.025Z,14.51
2022-08-10T04:59:33.086Z,14.60
2022-08-10T05:02:30.531Z,14.65
2022-08-10T05:05:19.217Z,14.72
2022-08-10T05:08:06.322Z,14.72
2022-08-10T05:10:53.576Z,14.83
2022-08-10T05:13:40.571Z,14.87
2022-08-10T05:16:32.272Z,14.92
2022-08-10T05:20:02.358Z,14.94
2022-08-10T05:22:26.694Z,15.05
2022-08-10T05:25:16.348Z,15.12
2022-08-10T05:28:06.453Z,15.15
2022-08-10T05:30:53.948Z,15.23
2022-08-10T05:33:40.961Z,15.25
2022-08-10T05:36:28.496Z,15.25
2022-08-10T05:39:16.938Z,15.39
2022-08-10T05:42:04.313Z,15.50
2022-08-10T05:44:51.986Z,15.62
2022-08-10T05:48:41.560Z,15.71
2022-08-10T05:50:46.459Z,15.89
2022-08-10T05:54:03.064Z,16.13
2022-08-10T05:56:56.939Z,16.39
2022-08-10T06:00:33.148Z,16.52
2022-08-10T06:03:03.927Z,16.65
2022-08-10T06:05:54.124Z,16.68
2022-08-10T06:08:43.619Z,16.72
2022-08-10T06:12:27.982Z,17.01
2022-08-10T06:15:00.306Z,17.20
2022-08-10T06:17:59.030Z,17.35
2022-08-10T06:20:50.304Z,17.55
2022-08-10T06:23:38.417Z,17.72
2022-08-10T06:26:25.386Z,17.81
2022-08-10T06:29:17.194Z,18.10
2022-08-10T06:32:06.281Z,18.16
2022-08-10T06:34:55.952Z,18.28
2022-08-10T06:37:51.727Z,18.51
2022-08-10T06:40:43.415Z,18.79
2022-08-10T06:43:32.466Z,18.80
2022-08-10T06:46:22.204Z,19.03
2022-08-10T06:49:11.178Z,19.13
2022-08-10T06:52:01.924Z,19.12
2022-08-10T06:54:54.522Z,19.34
2022-08-10T06:57:44.066Z,19.50
2022-08-10T07:00:34.615Z,19.39
2022-08-10T07:03:26.429Z,19.84
2022-08-10T07:06:16.107Z,20.14
2022-08-10T07:09:04.739Z,19.75
2022-08-10T07:11:54.441Z,19.86
2022-08-10T07:14:48.981Z,20.32
2022-08-10T07:17:40.022Z,20.50
2022-08-10T07:20:30.964Z,20.67
2022-08-10T07:23:58.222Z,20.70
2022-08-10T07:26:31.122Z,20.91
2022-08-10T07:29:26.590Z,20.99
2022-08-10T07:32:33.077Z,21.19
2022-08-10T07:35:26.384Z,21.08
2022-08-10T07:38:23.852Z,21.51
2022-08-10T07:41:13.331Z,21.78
2022-08-10T07:44:07.878Z,21.88
2022-08-10T07:46:58.827Z,22.01
2022-08-10T07:49:48.142Z,22.19
2022-08-10T07:52:38.222Z,22.32
2022-08-10T07:56:08.253Z,22.40
2022-08-10T07:58:38.589Z,22.66
2022-08-10T08:01:31.911Z,22.84
2022-08-10T08:04:22.011Z,23.00
2022-08-10T08:07:09.003Z,23.03
2022-08-10T08:10:01.051Z,23.32
2022-08-10T08:12:48.817Z,23.54
2022-08-10T08:16:20.047Z,23.49
2022-08-10T08:18:54.134Z,23.88
2022-08-10T08:24:07.658Z,23.82
2022-08-10T08:25:00.412Z,24.14
2022-08-10T08:27:52.896Z,24.07
2022-08-10T08:30:43.526Z,24.20
2022-08-10T08:33:42.009Z,24.44
2022-08-10T08:36:30.851Z,24.38
2022-08-10T08:39:17.974Z,24.22
2022-08-10T08:42:42.717Z,24.67
2022-08-10T08:46:00.456Z,24.88
2022-08-10T08:48:51.746Z,25.01
2022-08-10T08:52:20.197Z,25.14
2022-08-10T08:56:03.116Z,24.96
2022-08-10T08:59:05.673Z,25.25
2022-08-10T09:02:10.123Z,25.61
2022-08-10T09:05:22.282Z,25.99
2022-08-10T09:08:37.310Z,26.35
2022-08-10T09:11:27.252Z,26.51
2022-08-10T09:14:30.962Z,26.44
2022-08-10T09:17:42.342Z,26.42
2022-08-10T09:21:09.939Z,26.49
2022-08-10T09:24:11.436Z,26.64
2022-08-10T09:27:04.189Z,27.02
2022-08-10T09:30:00.416Z,27.08
2022-08-10T09:36:16.062Z,27.63
2022-08-10T09:36:31.955Z,27.62
2022-08-10T09:40:56.325Z,27.34
2022-08-10T09:43:26.056Z,28.04
2022-08-10T09:46:42.586Z,28.19
2022-08-10T09:49:54.756Z,27.60
2022-08-10T09:53:04.304Z,27.95
2022-08-10T09:56:17.382Z,28.15
2022-08-10T09:59:29.179Z,28.57
2022-08-10T10:02:52.563Z,28.48
2022-08-10T10:06:02.251Z,28.46
2022-08-10T10:09:10.629Z,28.42
2022-08-10T10:12:05.133Z,28.04
2022-08-10T10:15:23.986Z,28.66
2022-08-10T10:18:22.491Z,28.77
2022-08-10T10:21:52.320Z,29.07
2022-08-10T10:24:43.188Z,29.01
2022-08-10T10:27:33.510Z,29.14
2022-08-10T10:30:23.411Z,29.52
2022-08-10T10:33:15.333Z,29.19
2022-08-10T10:36:05.718Z,28.86
2022-08-10T10:38:56.287Z,29.04
2022-08-10T10:42:04.879Z,29.38
2022-08-10T10:45:15.090Z,29.20
2022-08-10T10:48:32.381Z,29.39
2022-08-10T10:51:55.501Z,29.25
2022-08-10T10:55:09.678Z,29.24
2022-08-10T10:58:05.530Z,28.87
2022-08-10T11:01:11.037Z,29.58
2022-08-10T11:04:18.557Z,29.73
2022-08-10T11:07:37.205Z,29.73
2022-08-10T11:10:54.139Z,29.95
2022-08-10T11:14:24.407Z,30.05
2022-08-10T11:17:16.424Z,29.87
2022-08-10T11:20:18.109Z,29.95
2022-08-10T11:23:22.749Z,30.53
2022-08-10T11:26:22.902Z,30.39
2022-08-10T11:29:26.011Z,30.06
2022-08-10T11:32:35.203Z,30.33
2022-08-10T11:35:34.731Z,29.60
2022-08-10T11:38:36.870Z,29.66
2022-08-10T11:42:11.987Z,29.48
2022-08-10T11:44:53.682Z,29.37
2022-08-10T11:47:43.673Z,29.75
2022-08-10T11:50:43.702Z,29.91
2022-08-10T11:53:39.298Z,30.00
2022-08-10T11:56:33.727Z,29.96
2022-08-10T11:59:43.138Z,30.23
2022-08-10T12:02:36.009Z,30.01
2022-08-10T12:05:52.150Z,30.33
2022-08-10T12:10:03.765Z,30.33
2022-08-10T12:11:48.581Z,30.34
2022-08-10T12:14:43.495Z,30.16
2022-08-10T12:17:56.127Z,30.32
2022-08-10T12:20:48.666Z,29.92
2022-08-10T12:23:42.745Z,30.64
2022-08-10T12:26:48.046Z,30.60
2022-08-10T12:30:04.801Z,30.66
2022-08-10T12:33:02.257Z,30.63
2022-08-10T12:36:19.076Z,30.54
2022-08-10T12:39:29.995Z,31.28
2022-08-10T12:42:38.934Z,31.14
2022-08-10T12:45:54.222Z,31.03
2022-08-10T12:48:54.639Z,30.93
2022-08-10T12:51:49.846Z,31.04
2022-08-10T12:54:38.380Z,31.12
2022-08-10T12:57:26.570Z,31.14
2022-08-10T13:00:17.303Z,30.54
2022-08-10T13:03:07.931Z,30.81
2022-08-10T13:06:02.374Z,30.63
2022-08-10T13:09:10.674Z,30.51
2022-08-10T13:12:36.296Z,30.63
2022-08-10T13:15:48.150Z,30.88
2022-08-10T13:18:41.491Z,30.50
2022-08-10T13:21:35.912Z,30.65
2022-08-10T13:24:31.967Z,30.35
2022-08-10T13:28:00.547Z,30.13
2022-08-10T13:30:37.451Z,30.34
2022-08-10T13:34:41.472Z,30.51
2022-08-10T13:36:41.638Z,30.93
2022-08-10T13:39:58.480Z,30.32
2022-08-10T13:42:50.002Z,30.42
2022-08-10T13:45:47.724Z,30.34
2022-08-10T13:48:40.246Z,30.19
2022-08-10T13:51:54.400Z,30.97
2022-08-10T13:54:41.746Z,30.75
2022-08-10T13:57:32.628Z,31.15
2022-08-10T14:00:35.238Z,30.54
2022-08-10T14:03:27.286Z,30.93
2022-08-10T14:06:16.338Z,31.10
2022-08-10T14:09:08.973Z,30.70
2022-08-10T14:11:58.142Z,30.72
2022-08-10T14:14:52.848Z,30.94
2022-08-10T14:17:44.879Z,30.65
2022-08-10T14:20:34.723Z,30.79
2022-08-10T14:23:21.967Z,31.13
2022-08-10T14:26:11.614Z,30.60
2022-08-10T14:29:08.582Z,30.16
2022-08-10T14:32:00.611Z,30.43
2022-08-10T14:36:16.822Z,30.33
2022-08-10T14:38:05.975Z,30.57
2022-08-10T14:40:56.983Z,30.95
2022-08-10T14:43:51.238Z,31.38
2022-08-10T14:46:44.609Z,31.00
2022-08-10T14:49:57.370Z,30.93
2022-08-10T14:52:45.294Z,30.56
2022-08-10T14:55:32.873Z,30.73
2022-08-10T14:59:06.134Z,30.79
2022-08-10T15:02:38.257Z,30.89
2022-08-10T15:05:09.391Z,30.64
2022-08-10T15:07:59.120Z,30.61
2022-08-10T15:10:50.826Z,30.87
2022-08-10T15:13:44.005Z,30.85
2022-08-10T15:16:56.149Z,30.85
2022-08-10T15:20:04.682Z,30.56
2022-08-10T15:23:04.276Z,30.21
2022-08-10T15:25:57.778Z,30.40
2022-08-10T15:29:23.693Z,30.54
2022-08-10T15:32:16.988Z,31.09
2022-08-10T15:35:27.085Z,30.77
2022-08-10T15:38:21.764Z,30.69
2022-08-10T15:41:12.984Z,31.00
2022-08-10T15:44:03.858Z,30.80
2022-08-10T15:46:57.742Z,30.61
2022-08-10T15:49:58.090Z,30.38
2022-08-10T15:53:00.999Z,30.23
2022-08-10T15:55:53.061Z,30.48
2022-08-10T15:58:52.992Z,30.75
2022-08-10T16:02:13.065Z,30.42
2022-08-10T16:05:08.379Z,30.47
2022-08-10T16:08:09.872Z,30.68
2022-08-10T16:11:05.539Z,30.75
2022-08-10T16:14:00.660Z,30.99
2022-08-10T16:16:54.267Z,30.79
2022-08-10T16:19:53.446Z,31.13
2022-08-10T16:22:41.016Z,30.89
2022-08-10T16:25:48.124Z,30.89
2022-08-10T16:28:43.699Z,31.44
2022-08-10T16:31:33.054Z,31.63
2022-08-10T16:34:21.938Z,32.25
2022-08-10T16:37:15.769Z,32.04
2022-08-10T16:40:06.375Z,32.49
2022-08-10T16:42:54.107Z,33.03
2022-08-10T16:45:45.966Z,32.69
2022-08-10T16:48:49.780Z,32.36
2022-08-10T16:51:39.865Z,31.23
2022-08-10T16:54:28.423Z,30.33
2022-08-10T16:57:16.347Z,29.79
2022-08-10T17:00:05.904Z,29.41
2022-08-10T17:02:58.176Z,29.02
2022-08-10T17:06:10.296Z,28.80
2022-08-10T17:08:56.792Z,28.70
2022-08-10T17:11:50.054Z,28.61
2022-08-10T17:14:40.249Z,28.50
2022-08-10T17:17:31.053Z,28.51
2022-08-10T17:20:31.943Z,28.37
2022-08-10T17:23:20.906Z,28.06
2022-08-10T17:26:14.966Z,27.95
2022-08-10T17:29:57.817Z,27.67
2022-08-10T17:32:32.082Z,27.74
2022-08-10T17:35:23.792Z,27.56
2022-08-10T17:38:30.802Z,27.35
2022-08-10T17:41:23.849Z,27.27
2022-08-10T17:44:12.296Z,27.25
2022-08-10T17:47:00.916Z,27.06
2022-08-10T17:50:00.002Z,27.02
2022-08-10T17:52:48.073Z,26.97
2022-08-10T17:55:38.610Z,26.78
2022-08-10T17:58:27.236Z,26.69
2022-08-10T18:01:41.569Z,26.57
2022-08-10T18:04:30.330Z,26.49
2022-08-10T18:07:23.063Z,26.24
2022-08-10T18:10:15.141Z,26.07
2022-08-10T18:13:04.549Z,25.94
2022-08-10T18:15:52.138Z,25.67
2022-08-10T18:18:40.784Z,25.57
2022-08-10T18:21:30.934Z,25.49
2022-08-10T18:24:21.197Z,25.30
2022-08-10T18:27:09.029Z,25.17
2022-08-10T18:29:59.999Z,25.04
2022-08-10T18:32:54.094Z,24.91
2022-08-10T18:35:43.907Z,24.70
2022-08-10T18:38:34.329Z,24.55
2022-08-10T18:41:36.728Z,24.41
2022-08-10T18:44:28.810Z,24.38
2022-08-10T18:47:20.189Z,24.22
2022-08-10T18:50:14.254Z,24.08
2022-08-10T18:53:12.086Z,23.93
2022-08-10T18:56:10.602Z,23.81
2022-08-10T18:59:22.914Z,23.69
2022-08-10T19:02:42.402Z,23.46
2022-08-10T19:05:35.839Z,23.39
2022-08-10T19:09:02.043Z,23.20
2022-08-10T19:12:31.215Z,23.03
2022-08-10T19:15:59.320Z,22.84
2022-08-10T19:19:24.078Z,22.74
2022-08-10T19:22:21.467Z,22.63
2022-08-10T19:26:43.192Z,22.57
2022-08-10T19:28:58.884Z,22.37
2022-08-10T19:31:56.596Z,22.28
2022-08-10T19:35:03.173Z,22.19
2022-08-10T19:38:16.744Z,22.07
2022-08-10T19:41:25.391Z,21.99
2022-08-10T19:44:35.606Z,21.90
2022-08-10T19:47:36.344Z,21.79
2022-08-10T19:50:33.039Z,21.71
2022-08-10T19:53:26.860Z,21.63
2022-08-10T19:56:34.790Z,21.52
2022-08-10T20:00:17.518Z,21.52
2022-08-10T20:03:01.302Z,21.43
2022-08-10T20:06:19.116Z,21.26
2022-08-10T20:09:27.328Z,21.09
2022-08-10T20:12:27.100Z,21.05
2022-08-10T20:15:41.965Z,20.97
2022-08-10T20:18:37.619Z,20.86
2022-08-10T20:21:31.193Z,20.80
2022-08-10T20:24:29.000Z,20.72
2022-08-10T20:27:59.656Z,20.68
2022-08-10T20:30:47.097Z,20.55
2022-08-10T20:34:01.688Z,20.46
2022-08-10T20:37:05.017Z,20.39
2022-08-10T20:40:20.354Z,20.34
2022-08-10T20:43:20.716Z,20.26
2022-08-10T20:46:28.006Z,20.19
2022-08-10T20:49:27.147Z,20.10
2022-08-10T20:52:15.420Z,20.08
2022-08-10T20:55:08.902Z,19.95
2022-08-10T20:58:27.918Z,19.88
2022-08-10T21:01:18.120Z,19.80
2022-08-10T21:04:13.296Z,19.76
2022-08-10T21:07:58.203Z,19.75
2022-08-10T21:10:58.560Z,19.65
2022-08-10T21:14:12.189Z,19.56
2022-08-10T21:17:16.930Z,19.48
2022-08-10T21:20:28.800Z,19.37
2022-08-10T21:23:19.870Z,19.32
2022-08-10T21:26:29.640Z,19.30
2022-08-10T21:29:42.045Z,19.26
2022-08-10T21:33:02.057Z,19.15
2022-08-10T21:35:56.421Z,19.03
2022-08-10T21:38:46.145Z,18.96
2022-08-10T21:42:36.903Z,18.93
2022-08-10T21:46:01.573Z,18.85
2022-08-10T21:49:15.199Z,18.80
2022-08-10T21:52:41.413Z,18.69
2022-08-10T21:56:14.450Z,18.63
2022-08-10T21:59:29.369Z,18.59
2022-08-10T22:02:50.456Z,18.35
2022-08-10T22:05:58.580Z,18.29
2022-08-10T22:09:10.671Z,18.18
2022-08-10T22:12:31.326Z,18.15
2022-08-10T22:16:03.214Z,18.13
2022-08-10T22:19:14.847Z,18.15
2022-08-10T22:22:31.417Z,18.05
2022-08-10T22:25:56.243Z,18.15
2022-08-10T22:29:10.870Z,18.14
2022-08-10T22:32:35.413Z,18.08
2022-08-10T22:35:56.327Z,18.01
2022-08-10T22:40:12.543Z,17.94
2022-08-10T22:42:59.108Z,17.89
2022-08-10T22:46:18.928Z,17.97
2022-08-10T22:49:06.108Z,17.87
2022-08-10T22:52:16.815Z,17.79
2022-08-10T22:55:32.233Z,17.76
2022-08-10T22:58:28.826Z,17.68
2022-08-10T23:02:08.552Z,17.63
2022-08-10T23:04:57.754Z,17.47
2022-08-10T23:07:51.517Z,17.48
2022-08-10T23:10:45.552Z,17.41
2022-08-10T23:13:37.869Z,17.35
2022-08-10T23:16:46.807Z,17.33
2022-08-10T23:20:02.638Z,17.32
2022-08-10T23:22:56.640Z,17.29
2022-08-10T23:25:56.358Z,17.30
2022-08-10T23:29:05.201Z,17.26
2022-08-10T23:32:06.968Z,17.16
2022-08-10T23:36:30.664Z,17.19
2022-08-10T23:38:04.880Z,17.18
2022-08-10T23:40:56.609Z,17.14
2022-08-10T23:44:03.230Z,17.03
2022-08-10T23:46:52.198Z,16.99
2022-08-10T23:49:40.576Z,16.93
2022-08-10T23:52:34.130Z,16.92
2022-08-10T23:55:24.568Z,16.86
2022-08-10T23:58:31.919Z,16.80
